Time;durP1;ratioP1;P1;durP2;ratioP2;P2;SDS_P1;SDS_P2;PMS_P1;PMS_P2;Temp;Humidity;BMP_temperature;BMP_pressure;BME280_temperature;BME280_humidity;BME280_pressure;Samples;Min_cycle;Max_cycle;Signal;HPM_P1;HPM_P2
2023/04/17 00:01:26;;;;;;;1.50;1.40;;;22.20;55.00;;;;;;5034780;28;21028;-78
2023/04/17 00:03:56;;;;;;;1.20;1.20;;;22.20;55.00;;;;;;5027778;28;20474;-78
2023/04/17 00:06:26;;;;;;;1.37;1.30;;;22.20;54.90;;;;;;5032827;28;20989;-78
2023/04/17 00:08:56;;;;;;;1.20;1.10;;;22.20;54.90;;;;;;5033954;28;20451;-78
2023/04/17 00:11:24;;;;;;;1.10;1.10;;;22.20;55.00;;;;;;5034997;28;20483;-79
2023/04/17 00:13:53;;;;;;;0.90;0.90;;;22.20;54.90;;;;;;5032882;28;20673;-79
2023/04/17 00:16:21;;;;;;;1.50;1.40;;;22.20;55.00;;;;;;5016865;28;20530;-79
2023/04/17 00:18:49;;;;;;;1.37;1.27;;;22.20;54.90;;;;;;5031439;28;20483;-79
2023/04/17 00:21:20;;;;;;;0.80;0.80;;;22.20;54.90;;;;;;5032912;28;20534;-79
2023/04/17 00:23:49;;;;;;;1.27;1.17;;;22.20;54.90;;;;;;5032542;28;20590;-80
2023/04/17 00:26:18;;;;;;;1.03;0.90;;;22.20;54.90;;;;;;5033774;28;20559;-80
2023/04/17 00:28:49;;;;;;;0.83;0.83;;;22.20;54.90;;;;;;5015547;28;20931;-80
2023/04/17 00:31:17;;;;;;;1.37;1.37;;;22.20;54.90;;;;;;5033905;28;20459;-79
2023/04/17 00:33:46;;;;;;;0.90;0.90;;;22.20;54.90;;;;;;5016183;28;20473;-79
2023/04/17 00:36:14;;;;;;;1.20;1.10;;;22.20;54.90;;;;;;5032551;28;21083;-79
2023/04/17 00:38:42;;;;;;;1.40;1.10;;;22.20;54.90;;;;;;5033792;28;21057;-79
2023/04/17 00:41:11;;;;;;;1.00;1.00;;;22.20;54.90;;;;;;5033940;28;20530;-79
2023/04/17 00:43:41;;;;;;;1.20;1.20;;;22.20;54.90;;;;;;5023817;28;20464;-80
2023/04/17 00:46:09;;;;;;;1.33;1.23;;;22.20;54.90;;;;;;5034013;28;21009;-80
2023/04/17 00:48:39;;;;;;;1.10;1.10;;;22.20;54.90;;;;;;5008221;28;21173;-80
2023/04/17 00:51:08;;;;;;;1.47;1.30;;;22.20;54.90;;;;;;5047368;28;20857;-80
2023/04/17 00:53:36;;;;;;;1.00;1.00;;;22.20;54.90;;;;;;5029806;28;20461;-80
2023/04/17 00:56:06;;;;;;;1.20;1.20;;;22.20;54.80;;;;;;5032122;28;21254;-80
2023/04/17 00:58:37;;;;;;;1.10;1.00;;;22.20;54.80;;;;;;5030653;28;20485;-80
2023/04/17 01:01:06;;;;;;;1.27;0.93;;;22.20;54.90;;;;;;5033475;28;20457;-80
2023/04/17 01:03:35;;;;;;;1.33;1.20;;;22.20;54.90;;;;;;5012758;28;20853;-79
2023/04/17 01:06:03;;;;;;;1.10;1.10;;;22.20;54.90;;;;;;5012470;28;21251;-79
2023/04/17 01:08:39;;;;;;;1.90;1.10;;;22.10;54.90;;;;;;5048087;28;20894;-80
2023/04/17 01:11:07;;;;;;;1.27;1.27;;;22.20;54.90;;;;;;5033278;28;20486;-79
2023/04/17 01:13:46;;;;;;;0.90;0.90;;;22.10;54.90;;;;;;5015397;28;20819;-80
2023/04/17 01:16:15;;;;;;;0.90;0.90;;;22.10;54.90;;;;;;5010719;28;20475;-78
2023/04/17 01:18:45;;;;;;;1.10;1.00;;;22.10;54.90;;;;;;5032969;28;20456;-78
2023/04/17 01:21:13;;;;;;;0.90;0.90;;;22.10;54.90;;;;;;5032705;28;20907;-80
2023/04/17 01:23:48;;;;;;;1.17;1.07;;;22.10;54.90;;;;;;5032620;28;20455;-80
2023/04/17 01:26:20;;;;;;;1.00;1.00;;;22.10;54.90;;;;;;5015428;28;20458;-79
2023/04/17 01:28:53;;;;;;;1.20;1.13;;;22.10;54.90;;;;;;5030827;28;20942;-79
2023/04/17 01:31:21;;;;;;;0.90;0.90;;;22.10;54.90;;;;;;5013220;28;20470;-79
2023/04/17 01:33:51;;;;;;;1.20;1.20;;;22.10;54.90;;;;;;5015326;28;20475;-79
2023/04/17 01:36:19;;;;;;;0.80;0.80;;;22.10;54.90;;;;;;5032595;28;20529;-80
2023/04/17 01:38:47;;;;;;;0.90;0.90;;;22.10;54.90;;;;;;5014131;28;20490;-79
2023/04/17 01:41:16;;;;;;;1.90;0.90;;;22.10;54.90;;;;;;5014462;28;20483;-79
2023/04/17 01:43:46;;;;;;;0.90;0.90;;;22.10;54.90;;;;;;5023634;28;20534;-80
2023/04/17 01:46:14;;;;;;;1.20;1.20;;;22.10;54.90;;;;;;5028543;28;20497;-80
2023/04/17 01:48:43;;;;;;;1.00;1.00;;;22.10;54.90;;;;;;5014354;28;20452;-80
2023/04/17 01:51:11;;;;;;;0.90;0.90;;;22.10;54.90;;;;;;5015379;28;20455;-80
2023/04/17 01:53:40;;;;;;;1.20;0.87;;;22.10;54.90;;;;;;5019109;28;20456;-80
2023/04/17 01:56:08;;;;;;;0.90;0.90;;;22.00;54.90;;;;;;5013977;28;20489;-80
2023/04/17 01:58:36;;;;;;;1.03;1.00;;;22.00;54.90;;;;;;5014050;28;20503;-80
2023/04/17 02:01:06;;;;;;;0.80;0.80;;;22.00;54.90;;;;;;5032520;28;20455;-79
2023/04/17 02:03:34;;;;;;;0.80;0.80;;;22.00;54.90;;;;;;5026777;28;20875;-80
2023/04/17 02:06:03;;;;;;;1.00;1.00;;;22.00;54.90;;;;;;5031553;28;21019;-79
2023/04/17 02:08:32;;;;;;;0.90;0.90;;;22.00;54.90;;;;;;5014548;28;20551;-79
2023/04/17 02:11:01;;;;;;;0.90;0.90;;;22.00;54.90;;;;;;5029453;28;20451;-79
2023/04/17 02:13:29;;;;;;;0.83;0.83;;;22.00;54.90;;;;;;5013851;28;20580;-79
2023/04/17 02:15:57;;;;;;;0.97;0.97;;;22.00;54.90;;;;;;5030900;28;20519;-79
2023/04/17 02:18:30;;;;;;;1.00;0.90;;;22.00;54.90;;;;;;5031230;28;20463;-79
2023/04/17 02:21:00;;;;;;;1.23;0.97;;;22.00;54.90;;;;;;5031081;28;21003;-79
2023/04/17 02:23:28;;;;;;;1.20;1.10;;;22.00;54.90;;;;;;5032036;28;20479;-79
2023/04/17 02:25:57;;;;;;;0.97;0.97;;;22.00;54.90;;;;;;5014396;28;20969;-79
2023/04/17 02:28:25;;;;;;;0.97;0.97;;;22.00;54.90;;;;;;5014130;28;20444;-79
2023/04/17 02:30:53;;;;;;;0.90;0.90;;;21.90;54.90;;;;;;5019724;28;21010;-79
2023/04/17 02:33:22;;;;;;;0.90;0.90;;;21.90;55.00;;;;;;5032602;28;20466;-79
2023/04/17 02:35:51;;;;;;;1.00;0.90;;;21.90;55.00;;;;;;5029885;28;20845;-79
2023/04/17 02:38:29;;;;;;;0.80;0.80;;;21.90;55.00;;;;;;5014152;28;20501;-79
2023/04/17 02:40:57;;;;;;;0.97;0.97;;;21.90;55.00;;;;;;5013957;28;20524;-79
2023/04/17 02:43:27;;;;;;;0.70;0.70;;;21.90;55.00;;;;;;5012809;28;20857;-79
2023/04/17 02:45:56;;;;;;;1.10;1.00;;;21.90;55.00;;;;;;5012976;28;20463;-79
2023/04/17 02:48:26;;;;;;;0.90;0.90;;;21.90;55.00;;;;;;5013000;28;20491;-80
2023/04/17 02:50:55;;;;;;;0.70;0.70;;;21.90;55.00;;;;;;5006643;28;20487;-79
2023/04/17 02:53:24;;;;;;;0.80;0.80;;;21.90;55.00;;;;;;5014085;28;20501;-80
2023/04/17 02:55:52;;;;;;;0.90;0.90;;;21.90;55.00;;;;;;5008015;28;20556;-80
2023/04/17 02:58:23;;;;;;;0.70;0.70;;;21.90;55.00;;;;;;5013606;28;20501;-80
2023/04/17 03:00:51;;;;;;;1.00;0.90;;;21.90;54.90;;;;;;5013135;28;20499;-80
2023/04/17 03:03:20;;;;;;;0.80;0.80;;;21.90;55.00;;;;;;5013648;28;20470;-81
2023/04/17 03:05:48;;;;;;;0.77;0.77;;;21.80;55.00;;;;;;5011719;28;20466;-81
2023/04/17 03:08:18;;;;;;;0.60;0.60;;;21.80;55.00;;;;;;5013383;28;20963;-81
2023/04/17 03:10:48;;;;;;;0.83;0.83;;;21.80;55.00;;;;;;5012857;28;20464;-80
2023/04/17 03:13:16;;;;;;;1.37;0.70;;;21.80;55.00;;;;;;5013188;28;20530;-81
2023/04/17 03:15:44;;;;;;;0.80;0.80;;;21.80;55.00;;;;;;5030747;28;20824;-80
2023/04/17 03:18:12;;;;;;;0.90;0.90;;;21.80;55.00;;;;;;5013159;28;20493;-81
2023/04/17 03:20:40;;;;;;;0.70;0.70;;;21.80;55.00;;;;;;5012528;28;20980;-81
2023/04/17 03:23:09;;;;;;;0.90;0.90;;;21.80;55.00;;;;;;5031070;28;20473;-79
2023/04/17 03:25:39;;;;;;;0.80;0.80;;;21.80;55.00;;;;;;5031345;28;21015;-78
2023/04/17 03:28:08;;;;;;;0.90;0.90;;;21.80;55.00;;;;;;5028849;28;20467;-78
2023/04/17 03:30:36;;;;;;;2.23;0.90;;;21.80;55.00;;;;;;5011452;28;20454;-78
2023/04/17 03:33:07;;;;;;;0.90;0.90;;;21.80;55.00;;;;;;5029192;28;20469;-78
2023/04/17 03:35:36;;;;;;;0.80;0.80;;;21.80;55.00;;;;;;5012864;28;20541;-78
2023/04/17 03:38:07;;;;;;;0.80;0.80;;;21.80;55.00;;;;;;5012553;28;21002;-79
2023/04/17 03:40:35;;;;;;;0.70;0.70;;;21.80;55.00;;;;;;5012242;28;20463;-78
2023/04/17 03:43:05;;;;;;;0.80;0.80;;;21.80;55.00;;;;;;5013032;28;20463;-79
2023/04/17 03:45:34;;;;;;;0.70;0.70;;;21.80;55.00;;;;;;5010876;28;20628;-78
2023/04/17 03:48:03;;;;;;;1.00;1.00;;;21.80;55.00;;;;;;5013120;28;20459;-78
2023/04/17 03:50:33;;;;;;;0.87;0.87;;;21.80;55.00;;;;;;5013196;28;20551;-78
2023/04/17 03:53:01;;;;;;;0.70;0.70;;;21.80;55.10;;;;;;5030464;28;20453;-79
2023/04/17 03:55:31;;;;;;;1.00;1.00;;;21.80;55.10;;;;;;5010220;28;20525;-78
2023/04/17 03:58:00;;;;;;;0.80;0.80;;;21.80;55.10;;;;;;5013262;28;20504;-78
2023/04/17 04:00:32;;;;;;;0.93;0.93;;;21.80;55.10;;;;;;5009987;28;20455;-83
2023/04/17 04:03:06;;;;;;;0.90;0.90;;;21.90;55.10;;;;;;5011547;28;20463;-80
2023/04/17 04:05:39;;;;;;;1.10;1.00;;;21.90;55.00;;;;;;5011419;28;20507;-80
2023/04/17 04:08:09;;;;;;;0.93;0.93;;;21.90;55.00;;;;;;5011856;28;20831;-80
2023/04/17 04:10:55;;;;;;;1.40;0.93;;;22.00;55.00;;;;;;5028883;28;20462;-80
2023/04/17 04:13:33;;;;;;;0.93;0.93;;;22.00;55.00;;;;;;5002639;28;20519;-80
2023/04/17 04:16:05;;;;;;;1.10;1.10;;;22.00;55.00;;;;;;5028218;28;20456;-80
2023/04/17 04:18:36;;;;;;;0.80;0.80;;;22.10;55.00;;;;;;5011336;28;20510;-78
2023/04/17 04:21:06;;;;;;;1.00;1.00;;;22.10;54.90;;;;;;5009018;28;20462;-80
2023/04/17 04:23:40;;;;;;;0.80;0.80;;;22.10;54.90;;;;;;5011591;28;20466;-80
2023/04/17 04:26:10;;;;;;;0.77;0.77;;;22.10;54.80;;;;;;5010666;28;20463;-80
2023/04/17 04:28:47;;;;;;;0.80;0.80;;;22.20;54.80;;;;;;5003218;28;20546;-80
2023/04/17 04:31:24;;;;;;;0.90;0.90;;;22.20;54.70;;;;;;5004839;28;20521;-80
2023/04/17 04:33:54;;;;;;;0.60;0.60;;;22.20;54.60;;;;;;5003710;28;20532;-81
2023/04/17 04:36:23;;;;;;;0.90;0.90;;;22.30;54.50;;;;;;5011245;28;20509;-80
2023/04/17 04:39:05;;;;;;;0.77;0.77;;;22.30;54.50;;;;;;5011921;28;20467;-79
2023/04/17 04:41:37;;;;;;;0.90;0.90;;;22.30;54.40;;;;;;5012256;28;20540;-80
2023/04/17 04:44:08;;;;;;;0.97;0.93;;;22.30;54.40;;;;;;5009966;28;20467;-80
2023/04/17 04:46:40;;;;;;;0.80;0.80;;;22.30;54.30;;;;;;5008010;28;20543;-80
2023/04/17 04:49:08;;;;;;;0.70;0.70;;;22.30;54.30;;;;;;5011670;28;20493;-80
2023/04/17 04:51:37;;;;;;;0.70;0.70;;;22.30;54.40;;;;;;5018923;28;20491;-81
2023/04/17 04:54:08;;;;;;;0.70;0.70;;;22.30;54.40;;;;;;5000195;28;20470;-81
2023/04/17 04:56:44;;;;;;;1.20;1.10;;;22.30;54.40;;;;;;5013784;28;20482;-81
2023/04/17 04:59:14;;;;;;;0.77;0.77;;;22.20;54.40;;;;;;5014561;28;20533;-79
2023/04/17 05:01:50;;;;;;;0.90;0.90;;;22.20;54.50;;;;;;5007523;28;20465;-77
2023/04/17 05:04:21;;;;;;;0.90;0.90;;;22.20;54.50;;;;;;5008253;28;20476;-76
2023/04/17 05:06:52;;;;;;;0.70;0.70;;;22.20;54.70;;;;;;5016606;28;20544;-78
2023/04/17 05:09:21;;;;;;;0.80;0.80;;;22.20;54.80;;;;;;5015178;28;20464;-76
2023/04/17 05:11:52;;;;;;;0.87;0.87;;;22.20;54.90;;;;;;5018756;28;20470;-76
2023/04/17 05:14:21;;;;;;;3.70;1.10;;;22.20;54.90;;;;;;5015310;28;20900;-77
2023/04/17 05:16:51;;;;;;;2.37;1.00;;;22.10;55.00;;;;;;5030406;28;20512;-76
2023/04/17 05:19:20;;;;;;;2.13;1.23;;;22.10;55.10;;;;;;5013477;28;20478;-77
2023/04/17 05:22:01;;;;;;;3.10;1.17;;;22.20;55.20;;;;;;5013971;28;20554;-77
2023/04/17 05:24:33;;;;;;;1.60;1.50;;;22.10;55.30;;;;;;5049157;28;20477;-77
2023/04/17 05:27:01;;;;;;;4.93;1.80;;;22.10;55.30;;;;;;5013805;28;20463;-77
2023/04/17 05:29:31;;;;;;;2.73;1.60;;;22.20;55.40;;;;;;5024009;28;20456;-77
2023/04/17 05:32:01;;;;;;;3.20;1.67;;;22.20;55.40;;;;;;5016657;28;20486;-77
2023/04/17 05:34:47;;;;;;;4.83;2.20;;;22.20;55.40;;;;;;5015905;28;20471;-77
2023/04/17 05:37:17;;;;;;;3.27;2.13;;;22.20;55.50;;;;;;5012933;28;20527;-77
2023/04/17 05:39:45;;;;;;;3.47;1.50;;;22.20;55.50;;;;;;5015460;28;20462;-77
2023/04/17 05:42:13;;;;;;;3.70;2.20;;;22.20;55.50;;;;;;5033346;28;20467;-77
2023/04/17 05:44:41;;;;;;;5.00;1.77;;;22.20;55.50;;;;;;5029817;28;20460;-77
2023/04/17 05:47:11;;;;;;;3.30;2.00;;;22.20;55.60;;;;;;5013368;28;20509;-77
2023/04/17 05:49:39;;;;;;;4.60;2.30;;;22.20;55.70;;;;;;5012364;28;20475;-77
2023/04/17 05:52:07;;;;;;;6.90;2.40;;;22.30;56.00;;;;;;5013300;28;20451;-77
2023/04/17 05:54:40;;;;;;;7.60;2.03;;;22.30;56.10;;;;;;5026181;28;20461;-77
2023/04/17 05:57:09;;;;;;;4.90;1.97;;;22.30;56.30;;;;;;5014311;28;20834;-77
2023/04/17 05:59:38;;;;;;;6.70;2.50;;;22.30;56.50;;;;;;5014680;28;21004;-77
2023/04/17 06:02:08;;;;;;;6.60;2.43;;;22.30;56.60;;;;;;5020756;28;20455;-77
2023/04/17 06:04:38;;;;;;;8.40;2.83;;;22.40;56.70;;;;;;5038677;28;20534;-77
2023/04/17 06:07:07;;;;;;;4.87;2.97;;;22.40;56.70;;;;;;5014287;28;20459;-78
2023/04/17 06:09:36;;;;;;;2.93;1.73;;;22.40;56.80;;;;;;5014932;28;20459;-76
2023/04/17 06:12:05;;;;;;;4.77;2.13;;;22.40;56.80;;;;;;5034035;28;20969;-76
2023/04/17 06:14:33;;;;;;;7.00;2.47;;;22.40;56.80;;;;;;5016463;28;20462;-77
2023/04/17 06:17:05;;;;;;;3.23;1.70;;;22.40;56.80;;;;;;5013252;28;20467;-77
2023/04/17 06:19:34;;;;;;;3.20;2.20;;;22.40;56.80;;;;;;4999345;28;20473;-77
2023/04/17 06:22:04;;;;;;;3.90;2.37;;;22.40;56.80;;;;;;5031624;28;20534;-77
2023/04/17 06:24:32;;;;;;;6.03;3.00;;;22.40;56.90;;;;;;5012586;28;20473;-77
2023/04/17 06:27:00;;;;;;;6.23;1.90;;;22.40;56.90;;;;;;5031501;28;20868;-77
2023/04/17 06:29:29;;;;;;;4.70;2.00;;;22.40;56.90;;;;;;5011680;28;20594;-77
2023/04/17 06:31:57;;;;;;;6.30;2.10;;;22.40;56.90;;;;;;5031101;28;20487;-77
2023/04/17 06:34:26;;;;;;;5.57;2.10;;;22.40;56.90;;;;;;5013592;28;20460;-77
2023/04/17 06:36:55;;;;;;;2.53;1.57;;;22.30;57.00;;;;;;5013054;28;21060;-77
2023/04/17 06:39:25;;;;;;;2.60;2.30;;;22.30;56.90;;;;;;5023135;28;20511;-77
2023/04/17 06:41:55;;;;;;;3.13;1.80;;;22.30;56.90;;;;;;5012071;28;20471;-77
2023/04/17 06:44:27;;;;;;;2.63;1.53;;;22.30;56.90;;;;;;5013486;28;20470;-77
2023/04/17 06:46:55;;;;;;;2.80;2.40;;;22.30;56.90;;;;;;5033851;28;20498;-77
2023/04/17 06:49:23;;;;;;;3.97;2.20;;;22.30;56.90;;;;;;5036204;28;20450;-77
2023/04/17 06:51:52;;;;;;;3.50;2.10;;;22.30;56.80;;;;;;5021297;28;20492;-76
2023/04/17 06:54:20;;;;;;;3.23;1.73;;;22.30;56.80;;;;;;5039563;28;21021;-77
2023/04/17 06:56:50;;;;;;;4.67;1.93;;;22.30;56.70;;;;;;5030754;28;20466;-79
2023/04/17 06:59:18;;;;;;;6.33;2.30;;;22.30;56.80;;;;;;5029586;28;20474;-78
2023/04/17 07:01:46;;;;;;;2.80;1.87;;;22.30;57.10;;;;;;5023798;28;20547;-80
2023/04/17 07:04:16;;;;;;;6.20;1.93;;;22.30;57.10;;;;;;5029750;28;20566;-79
2023/04/17 07:06:45;;;;;;;5.53;1.80;;;22.30;57.00;;;;;;5029084;28;20513;-79
2023/04/17 07:09:13;;;;;;;3.47;2.13;;;22.40;57.00;;;;;;5012941;28;20467;-79
2023/04/17 07:11:41;;;;;;;2.50;2.00;;;22.40;56.90;;;;;;5031067;28;20506;-77
2023/04/17 07:14:11;;;;;;;9.10;3.13;;;22.40;56.90;;;;;;5030229;28;20551;-79
2023/04/17 07:16:40;;;;;;;2.70;1.87;;;22.50;56.80;;;;;;5031013;28;20455;-80
2023/04/17 07:19:08;;;;;;;4.90;2.13;;;22.50;56.80;;;;;;5028396;28;20475;-79
2023/04/17 07:21:36;;;;;;;2.00;1.70;;;22.50;56.80;;;;;;5030933;28;20451;-79
2023/04/17 07:24:05;;;;;;;4.10;2.13;;;22.50;56.70;;;;;;5030822;28;20456;-79
2023/04/17 07:26:33;;;;;;;3.77;1.97;;;22.60;56.60;;;;;;5031477;28;20444;-79
2023/04/17 07:29:02;;;;;;;2.97;1.93;;;22.60;56.50;;;;;;5029522;28;21001;-80
2023/04/17 07:31:31;;;;;;;4.03;1.80;;;22.60;56.40;;;;;;5031363;28;20448;-82
2023/04/17 07:34:00;;;;;;;2.50;1.60;;;22.70;56.20;;;;;;5030874;28;20482;-83
2023/04/17 07:36:28;;;;;;;3.53;2.00;;;22.70;56.40;;;;;;5024215;28;20499;-78
2023/04/17 07:38:56;;;;;;;2.20;1.53;;;22.70;56.40;;;;;;5013345;28;20471;-77
2023/04/17 07:41:25;;;;;;;1.83;1.73;;;22.70;56.30;;;;;;5031457;28;20530;-80
2023/04/17 07:43:53;;;;;;;2.57;1.77;;;22.70;56.30;;;;;;5030524;28;20567;-83
2023/04/17 07:46:24;;;;;;;2.13;1.67;;;22.70;56.20;;;;;;5030952;28;20458;-81
2023/04/17 07:48:53;;;;;;;1.43;1.33;;;22.70;56.20;;;;;;5030225;28;20572;-83
2023/04/17 07:51:22;;;;;;;2.67;1.70;;;22.70;56.20;;;;;;5031171;28;20943;-81
2023/04/17 07:53:50;;;;;;;2.03;1.80;;;22.70;56.20;;;;;;5011566;28;21105;-80
2023/04/17 07:56:18;;;;;;;4.60;2.10;;;22.70;56.10;;;;;;5030448;28;20464;-81
2023/04/17 07:58:50;;;;;;;3.90;1.50;;;22.70;56.10;;;;;;5016424;28;20472;-82
2023/04/17 08:01:21;;;;;;;2.70;1.30;;;22.70;56.10;;;;;;5029991;28;20507;-83
2023/04/17 08:03:50;;;;;;;1.70;1.60;;;22.70;56.20;;;;;;5004045;28;20526;-80
2023/04/17 08:06:20;;;;;;;2.30;1.43;;;22.70;56.10;;;;;;5027270;28;20979;-82
2023/04/17 08:08:48;;;;;;;2.43;1.53;;;22.70;56.00;;;;;;5030418;28;20456;-81
2023/04/17 08:11:17;;;;;;;3.43;1.23;;;22.70;56.00;;;;;;5029836;28;20881;-84
2023/04/17 08:13:45;;;;;;;2.57;1.77;;;22.70;56.00;;;;;;5028916;28;21327;-82
2023/04/17 08:16:13;;;;;;;2.00;1.80;;;22.70;56.00;;;;;;5028447;28;20459;-84
2023/04/17 08:18:41;;;;;;;1.50;1.40;;;22.80;56.00;;;;;;5034182;28;21284;-76
2023/04/17 08:21:10;;;;;;;2.93;1.70;;;22.80;55.90;;;;;;5034927;28;20517;-82
2023/04/17 08:23:40;;;;;;;1.53;1.43;;;22.80;55.90;;;;;;5034641;28;20480;-83
2023/04/17 08:26:09;;;;;;;2.77;1.80;;;22.80;55.80;;;;;;5030997;28;20488;-80
2023/04/17 08:28:38;;;;;;;2.40;2.17;;;22.80;55.80;;;;;;5032449;28;20959;-77
2023/04/17 08:31:07;;;;;;;2.53;2.33;;;22.80;55.80;;;;;;5028501;28;20452;-83
2023/04/17 08:33:35;;;;;;;1.40;1.30;;;22.90;55.80;;;;;;5031754;28;20455;-79
2023/04/17 08:36:04;;;;;;;1.57;1.47;;;22.90;55.70;;;;;;5032167;28;20548;-81
2023/04/17 08:38:35;;;;;;;1.53;1.43;;;22.90;55.70;;;;;;5033574;28;20580;-82
2023/04/17 08:41:11;;;;;;;2.30;1.40;;;23.00;55.60;;;;;;5033418;28;20468;-79
2023/04/17 08:43:41;;;;;;;2.10;1.80;;;23.00;55.50;;;;;;5032239;28;20451;-78
2023/04/17 08:46:10;;;;;;;1.67;1.40;;;23.10;55.40;;;;;;5007702;28;21014;-83
2023/04/17 08:48:38;;;;;;;2.60;1.30;;;23.10;55.30;;;;;;5031358;28;20484;-76
2023/04/17 08:51:06;;;;;;;5.53;1.50;;;23.10;55.20;;;;;;5033154;28;20543;-80
2023/04/17 08:53:34;;;;;;;1.83;1.70;;;23.20;55.20;;;;;;5035769;28;20453;-80
2023/04/17 08:56:06;;;;;;;1.20;1.10;;;23.20;55.10;;;;;;5021650;28;20480;-78
2023/04/17 08:58:36;;;;;;;1.47;1.37;;;23.20;55.10;;;;;;5020163;28;20448;-80
2023/04/17 09:01:09;;;;;;;1.50;1.40;;;23.20;55.10;;;;;;5028733;28;20828;-78
2023/04/17 09:03:42;;;;;;;1.30;1.20;;;23.20;55.00;;;;;;5031436;28;20467;-79
2023/04/17 09:06:11;;;;;;;1.80;1.70;;;23.20;55.00;;;;;;5031940;28;20448;-78
2023/04/17 09:08:54;;;;;;;2.20;1.50;;;23.20;55.00;;;;;;5028578;28;20463;-78
2023/04/17 09:11:24;;;;;;;4.17;1.73;;;23.20;54.80;;;;;;5007434;28;20487;-85
2023/04/17 09:13:52;;;;;;;1.70;1.60;;;23.20;54.80;;;;;;5033217;28;20505;-82
2023/04/17 09:16:21;;;;;;;1.87;1.73;;;23.10;54.90;;;;;;5032790;28;20878;-84
2023/04/17 09:18:49;;;;;;;1.50;1.40;;;23.10;55.00;;;;;;5006981;28;20972;-85
2023/04/17 09:21:18;;;;;;;3.20;2.10;;;23.10;55.00;;;;;;5031982;28;20498;-87
2023/04/17 09:23:48;;;;;;;1.80;1.30;;;23.10;55.00;;;;;;5029595;28;20478;-83
2023/04/17 09:26:18;;;;;;;1.13;1.13;;;23.10;55.00;;;;;;5033254;28;20452;-73
2023/04/17 09:29:07;;;;;;;3.30;1.63;;;23.10;55.00;;;;;;5031044;28;20450;-81
2023/04/17 09:31:36;;;;;;;3.47;1.70;;;23.20;55.00;;;;;;5015291;28;20453;-82
2023/04/17 09:34:07;;;;;;;2.13;1.73;;;23.20;54.90;;;;;;5032263;28;20457;-86
2023/04/17 09:36:37;;;;;;;3.10;1.37;;;23.20;54.90;;;;;;5029168;28;20445;-88
2023/04/17 09:39:15;;;;;;;1.50;1.40;;;23.20;54.90;;;;;;5032088;28;20461;-88
2023/04/17 09:41:43;;;;;;;3.17;1.60;;;23.20;54.90;;;;;;5029174;28;20452;-85
2023/04/17 09:44:25;;;;;;;1.20;1.20;;;23.30;54.90;;;;;;5017967;28;20445;-83
2023/04/17 09:46:54;;;;;;;1.60;1.43;;;23.30;54.70;;;;;;5032644;28;20804;-82
2023/04/17 09:49:28;;;;;;;1.70;1.60;;;23.40;54.70;;;;;;5033169;28;20575;-77
2023/04/17 09:51:58;;;;;;;1.50;1.40;;;23.40;54.70;;;;;;5033287;28;20486;-77
2023/04/17 09:54:30;;;;;;;2.07;1.60;;;23.40;54.70;;;;;;5038220;28;20502;-88
2023/04/17 09:56:58;;;;;;;1.13;1.13;;;23.50;54.70;;;;;;5032991;28;20560;-87
2023/04/17 09:59:28;;;;;;;1.60;1.43;;;23.50;54.60;;;;;;5024276;28;20533;-87
2023/04/17 10:01:57;;;;;;;1.60;1.50;;;23.50;54.40;;;;;;5033710;28;20449;-86
2023/04/17 10:04:26;;;;;;;1.50;1.40;;;23.60;54.40;;;;;;5025693;28;20478;-84
2023/04/17 10:06:56;;;;;;;1.70;1.60;;;23.60;54.30;;;;;;5032685;28;20471;-80
2023/04/17 10:09:25;;;;;;;1.50;1.40;;;23.70;54.20;;;;;;5031790;28;20477;-80
2023/04/17 10:11:55;;;;;;;1.33;1.23;;;23.70;54.20;;;;;;5033164;28;20460;-84
2023/04/17 10:14:26;;;;;;;2.37;1.80;;;23.70;54.10;;;;;;5028488;28;20533;-78
2023/04/17 10:16:55;;;;;;;1.20;1.20;;;23.80;54.10;;;;;;5025663;28;20488;-81
2023/04/17 10:19:29;;;;;;;1.60;1.50;;;23.80;54.00;;;;;;5032122;28;20461;-82
2023/04/17 10:22:28;;;;;;;1.63;1.37;;;23.80;54.00;;;;;;5014872;28;20460;-78
2023/04/17 10:25:23;;;;;;;2.90;1.40;;;23.80;54.00;;;;;;5013179;28;20502;-77
2023/04/17 10:27:53;;;;;;;1.60;1.40;;;23.80;53.90;;;;;;5031554;28;20451;-81
2023/04/17 10:30:22;;;;;;;2.20;1.20;;;23.80;53.90;;;;;;5034329;28;20446;-78
2023/04/17 10:33:23;;;;;;;1.50;1.40;;;23.80;53.90;;;;;;5030149;28;20452;-77
2023/04/17 10:35:52;;;;;;;1.30;1.20;;;23.80;54.00;;;;;;5030431;28;20436;-78
2023/04/17 10:38:34;;;;;;;1.37;1.27;;;23.70;54.00;;;;;;5031988;28;20473;-76
2023/04/17 10:41:04;;;;;;;1.60;1.50;;;23.70;54.10;;;;;;5014123;28;20555;-77
2023/04/17 10:43:32;;;;;;;1.67;1.57;;;23.70;54.10;;;;;;5017397;28;20449;-77
2023/04/17 10:46:05;;;;;;;1.63;1.40;;;23.70;54.20;;;;;;5030920;28;20482;-77
2023/04/17 10:48:37;;;;;;;1.93;1.50;;;23.70;54.10;;;;;;5020485;28;20455;-77
2023/04/17 10:51:40;;;;;;;1.80;1.40;;;23.70;54.10;;;;;;5031099;28;20988;-77
2023/04/17 10:54:12;;;;;;;2.23;1.80;;;23.70;54.10;;;;;;4974712;28;20477;-78
2023/04/17 10:56:42;;;;;;;1.70;1.60;;;23.70;54.00;;;;;;4987277;28;20452;-79
2023/04/17 10:59:11;;;;;;;2.17;1.50;;;23.80;54.00;;;;;;4982627;28;20449;-80
2023/04/17 11:01:59;;;;;;;1.77;1.67;;;23.80;53.90;;;;;;5029771;28;21004;-78
2023/04/17 11:04:32;;;;;;;1.40;1.30;;;23.80;53.90;;;;;;5024528;28;20819;-79
2023/04/17 11:07:01;;;;;;;1.23;1.13;;;23.80;53.90;;;;;;5027327;28;20495;-79
2023/04/17 11:09:30;;;;;;;1.57;1.47;;;23.80;53.80;;;;;;5028492;28;20455;-80
2023/04/17 11:12:01;;;;;;;1.20;1.10;;;23.80;53.80;;;;;;5027646;28;20487;-78
2023/04/17 11:14:30;;;;;;;1.40;1.30;;;23.80;53.80;;;;;;5027060;28;20451;-78
2023/04/17 11:17:01;;;;;;;2.60;1.60;;;23.80;53.70;;;;;;5020062;28;20486;-77
2023/04/17 11:19:33;;;;;;;1.77;1.67;;;23.80;53.80;;;;;;5024544;28;20458;-77
2023/04/17 11:22:01;;;;;;;1.13;1.13;;;23.90;53.70;;;;;;5027982;28;20470;-76
2023/04/17 11:24:31;;;;;;;1.60;1.50;;;24.00;53.50;;;;;;5023011;28;20552;-77
2023/04/17 11:27:00;;;;;;;1.93;1.60;;;24.00;53.30;;;;;;5026468;28;20488;-77
2023/04/17 11:29:29;;;;;;;1.40;1.37;;;24.00;53.40;;;;;;5026697;28;20487;-78
2023/04/17 11:31:59;;;;;;;2.00;1.70;;;24.00;53.40;;;;;;5028547;28;20481;-78
2023/04/17 11:34:28;;;;;;;1.80;1.70;;;24.10;53.50;;;;;;5018507;28;20465;-76
2023/04/17 11:36:58;;;;;;;1.67;1.30;;;24.20;53.50;;;;;;5024614;28;20500;-77
2023/04/17 11:39:29;;;;;;;1.60;1.50;;;24.30;53.20;;;;;;5019671;28;20458;-77
2023/04/17 11:41:57;;;;;;;1.50;1.40;;;24.30;53.20;;;;;;5025375;28;20505;-76
2023/04/17 11:44:25;;;;;;;1.73;1.60;;;24.30;53.00;;;;;;5022472;28;20801;-77
2023/04/17 11:46:55;;;;;;;1.40;1.33;;;24.20;53.20;;;;;;5010637;28;20481;-78
2023/04/17 11:49:26;;;;;;;3.17;1.70;;;24.20;53.30;;;;;;5026871;28;20448;-80
2023/04/17 11:51:54;;;;;;;1.73;1.60;;;24.10;53.40;;;;;;5023640;28;20467;-78
2023/04/17 11:54:30;;;;;;;2.33;2.23;;;24.10;53.50;;;;;;5019111;28;20507;-78
2023/04/17 11:57:00;;;;;;;1.90;1.40;;;24.00;53.70;;;;;;5025864;28;20462;-78
2023/04/17 11:59:33;;;;;;;1.60;1.50;;;24.00;53.80;;;;;;5020053;28;20459;-79
2023/04/17 12:02:02;;;;;;;1.90;1.80;;;23.90;53.90;;;;;;5026333;28;20605;-77
2023/04/17 12:04:32;;;;;;;1.60;1.50;;;23.80;54.00;;;;;;5025825;28;21010;-79
2023/04/17 12:07:02;;;;;;;1.37;1.20;;;23.80;54.10;;;;;;5025626;28;20479;-79
2023/04/17 12:09:32;;;;;;;1.90;1.80;;;23.70;54.20;;;;;;5027876;28;20448;-79
2023/04/17 12:12:02;;;;;;;3.40;1.60;;;23.70;54.30;;;;;;5028119;28;20821;-80
2023/04/17 12:14:31;;;;;;;2.33;1.67;;;23.70;54.40;;;;;;5028807;28;20450;-78
2023/04/17 12:17:00;;;;;;;2.07;1.77;;;23.70;54.40;;;;;;5029667;28;20446;-82
2023/04/17 12:19:30;;;;;;;3.80;1.90;;;23.70;54.50;;;;;;5028204;28;20446;-83
2023/04/17 12:21:59;;;;;;;2.60;2.10;;;23.70;54.60;;;;;;5023601;28;20631;-81
2023/04/17 12:24:27;;;;;;;1.90;1.50;;;23.70;54.70;;;;;;5027743;28;20835;-85
2023/04/17 12:26:57;;;;;;;1.63;1.53;;;23.70;54.80;;;;;;5026175;28;20480;-85
2023/04/17 12:29:25;;;;;;;3.37;1.63;;;23.70;54.80;;;;;;5027639;28;20867;-84
2023/04/17 12:32:11;;;;;;;6.10;1.80;;;23.80;54.90;;;;;;5027782;28;20456;-85
2023/04/17 12:34:40;;;;;;;3.17;2.50;;;23.80;54.90;;;;;;5026038;28;20457;-78
2023/04/17 12:37:08;;;;;;;1.50;1.40;;;23.80;55.10;;;;;;5029935;28;20496;-83
2023/04/17 12:39:37;;;;;;;3.67;1.60;;;23.80;55.10;;;;;;5012374;28;20511;-82
2023/04/17 12:42:06;;;;;;;2.17;2.03;;;23.80;55.10;;;;;;5019383;28;21292;-79
2023/04/17 12:44:35;;;;;;;1.97;1.60;;;23.80;55.10;;;;;;5025626;28;20465;-80
2023/04/17 12:47:03;;;;;;;1.93;1.53;;;23.80;55.10;;;;;;5028934;28;20460;-85
2023/04/17 12:49:33;;;;;;;1.60;1.50;;;23.80;55.10;;;;;;5031584;28;20818;-85
2023/04/17 12:52:01;;;;;;;1.60;1.50;;;23.80;55.10;;;;;;5015144;28;20816;-84
2023/04/17 12:54:31;;;;;;;4.13;2.10;;;23.90;55.20;;;;;;5028278;28;20453;-78
2023/04/17 12:57:01;;;;;;;2.43;1.60;;;23.90;55.10;;;;;;5029936;28;20455;-80
2023/04/17 12:59:31;;;;;;;1.40;1.30;;;23.90;55.20;;;;;;5010139;28;20464;-80
2023/04/17 13:02:00;;;;;;;3.50;1.67;;;23.90;55.20;;;;;;5015326;28;20479;-80
2023/04/17 13:04:29;;;;;;;2.73;2.53;;;23.90;55.20;;;;;;5009870;28;20979;-81